createdAt,value
2023-04-27T00:00:07.937Z,7.51
2023-04-27T00:02:34.348Z,7.49
2023-04-27T00:05:02.492Z,7.44
2023-04-27T00:07:28.935Z,7.38
2023-04-27T00:09:55.393Z,7.37
2023-04-27T00:12:21.695Z,7.34
2023-04-27T00:14:48.033Z,7.37
2023-04-27T00:17:14.329Z,7.37
2023-04-27T00:19:41.833Z,7.34
2023-04-27T00:22:08.768Z,7.39
2023-04-27T00:24:35.008Z,7.39
2023-04-27T00:27:01.612Z,7.35
2023-04-27T00:29:27.918Z,7.33
2023-04-27T00:31:54.347Z,7.30
2023-04-27T00:34:20.730Z,7.31
2023-04-27T00:36:47.008Z,7.26
2023-04-27T00:39:13.453Z,7.31
2023-04-27T00:41:39.893Z,7.25
2023-04-27T00:44:06.340Z,7.28
2023-04-27T00:46:36.304Z,7.21
2023-04-27T00:49:02.817Z,7.17
2023-04-27T00:51:31.188Z,7.15
2023-04-27T00:53:58.719Z,7.14
2023-04-27T00:56:25.349Z,7.14
2023-04-27T00:58:51.653Z,7.06
2023-04-27T01:01:20.529Z,7.03
2023-04-27T01:03:47.596Z,7.04
2023-04-27T01:06:14.145Z,7.03
2023-04-27T01:08:41.094Z,7.00
2023-04-27T01:11:07.313Z,6.96
2023-04-27T01:13:33.664Z,6.92
2023-04-27T01:15:59.945Z,6.89
2023-04-27T01:18:26.336Z,6.89
2023-04-27T01:20:53.337Z,6.86
2023-04-27T01:23:19.648Z,6.91
2023-04-27T01:25:46.021Z,6.92
2023-04-27T01:28:12.571Z,6.92
2023-04-27T01:30:38.970Z,7.02
2023-04-27T01:33:05.483Z,7.10
2023-04-27T01:35:31.982Z,7.12
2023-04-27T01:37:58.370Z,7.16
2023-04-27T01:40:24.673Z,7.20
2023-04-27T01:42:50.984Z,7.16
2023-04-27T01:45:17.335Z,7.16
2023-04-27T01:47:43.772Z,7.06
2023-04-27T01:50:10.616Z,7.05
2023-04-27T01:52:36.953Z,6.98
2023-04-27T01:55:03.475Z,6.94
2023-04-27T01:57:29.815Z,6.95
2023-04-27T01:59:56.131Z,6.98
2023-04-27T02:02:22.570Z,6.95
2023-04-27T02:04:49.061Z,6.96
2023-04-27T02:07:15.566Z,6.92
2023-04-27T02:09:42.071Z,6.84
2023-04-27T02:12:08.454Z,6.78
2023-04-27T02:14:34.758Z,6.72
2023-04-27T02:17:01.107Z,6.71
2023-04-27T02:19:27.412Z,6.69
2023-04-27T02:21:53.718Z,6.65
2023-04-27T02:24:20.065Z,6.59
2023-04-27T02:26:46.392Z,6.55
2023-04-27T02:29:12.867Z,6.49
2023-04-27T02:31:39.642Z,6.44
2023-04-27T02:34:05.967Z,6.36
2023-04-27T02:36:32.347Z,6.31
2023-04-27T02:38:58.617Z,6.25
2023-04-27T02:41:27.856Z,6.21
2023-04-27T02:43:54.179Z,6.18
2023-04-27T02:46:20.501Z,6.17
2023-04-27T02:48:46.782Z,6.14
2023-04-27T02:51:13.070Z,6.08
2023-04-27T02:53:39.371Z,6.07
2023-04-27T02:56:05.868Z,6.05
2023-04-27T02:58:32.185Z,5.96
2023-04-27T03:00:58.537Z,6.01
2023-04-27T03:03:24.998Z,5.97
2023-04-27T03:05:51.504Z,6.00
2023-04-27T03:08:17.924Z,5.99
2023-04-27T03:10:44.277Z,5.98
2023-04-27T03:13:10.875Z,5.96
2023-04-27T03:15:37.172Z,5.91
2023-04-27T03:18:03.746Z,5.86
2023-04-27T03:20:30.086Z,5.86
2023-04-27T03:22:56.397Z,5.87
2023-04-27T03:25:22.768Z,5.87
2023-04-27T03:27:49.201Z,5.82
2023-04-27T03:30:15.560Z,5.77
2023-04-27T03:32:41.960Z,5.78
2023-04-27T03:35:09.670Z,5.75
2023-04-27T03:37:35.975Z,5.76
2023-04-27T03:40:02.280Z,5.76
2023-04-27T03:42:29.421Z,5.72
2023-04-27T03:44:55.829Z,5.70
2023-04-27T03:47:22.676Z,5.66
2023-04-27T03:49:49.111Z,5.65
2023-04-27T03:52:15.575Z,5.67
2023-04-27T03:54:41.877Z,5.66
2023-04-27T03:57:09.012Z,5.65
2023-04-27T03:59:35.392Z,5.68
2023-04-27T04:02:03.848Z,5.66
2023-04-27T04:04:31.167Z,5.72
2023-04-27T04:06:57.636Z,5.74
2023-04-27T04:09:24.145Z,5.78
2023-04-27T04:11:51.982Z,5.81
2023-04-27T04:14:18.314Z,5.81
2023-04-27T04:16:44.612Z,5.76
2023-04-27T04:19:10.978Z,5.83
2023-04-27T04:21:37.384Z,5.81
2023-04-27T04:24:04.014Z,5.82
2023-04-27T04:26:30.759Z,5.84
2023-04-27T04:28:57.131Z,5.79
2023-04-27T04:31:23.468Z,5.88
2023-04-27T04:33:49.878Z,5.96
2023-04-27T04:36:16.237Z,5.97
2023-04-27T04:38:42.540Z,5.98
2023-04-27T04:41:10.371Z,6.04
2023-04-27T04:43:36.676Z,6.08
2023-04-27T04:46:03.146Z,6.11
2023-04-27T04:48:29.547Z,6.11
2023-04-27T04:51:00.712Z,6.00
2023-04-27T04:53:27.122Z,6.07
2023-04-27T04:55:53.585Z,6.13
2023-04-27T04:58:19.869Z,6.13
2023-04-27T05:00:46.155Z,6.16
2023-04-27T05:03:12.582Z,6.13
2023-04-27T05:05:39.042Z,6.12
2023-04-27T05:08:05.501Z,6.15
2023-04-27T05:10:31.825Z,6.24
2023-04-27T05:12:58.217Z,6.30
2023-04-27T05:15:24.581Z,6.32
2023-04-27T05:17:51.085Z,6.34
2023-04-27T05:20:17.541Z,6.36
2023-04-27T05:22:43.822Z,6.34
2023-04-27T05:25:10.148Z,6.42
2023-04-27T05:27:36.456Z,6.44
2023-04-27T05:30:03.258Z,6.49
2023-04-27T05:32:29.586Z,6.49
2023-04-27T05:34:56.199Z,6.50
2023-04-27T05:37:22.525Z,6.49
2023-04-27T05:39:48.846Z,6.51
2023-04-27T05:42:15.158Z,6.53
2023-04-27T05:44:41.620Z,6.58
2023-04-27T05:47:07.903Z,6.58
2023-04-27T05:49:34.231Z,6.60
2023-04-27T05:52:00.741Z,6.60
2023-04-27T05:54:27.494Z,6.68
2023-04-27T05:56:53.833Z,6.75
2023-04-27T05:59:20.262Z,6.82
2023-04-27T06:01:46.559Z,6.85
2023-04-27T06:04:12.951Z,6.99
2023-04-27T06:06:39.346Z,7.08
2023-04-27T06:09:05.680Z,7.15
2023-04-27T06:11:31.970Z,7.30
2023-04-27T06:13:58.376Z,7.35
2023-04-27T06:16:24.877Z,7.46
2023-04-27T06:18:51.603Z,7.59
2023-04-27T06:21:18.033Z,7.71
2023-04-27T06:23:44.438Z,7.78
2023-04-27T06:26:11.092Z,7.95
2023-04-27T06:28:37.815Z,8.09
2023-04-27T06:31:04.473Z,8.21
2023-04-27T06:33:30.806Z,8.35
2023-04-27T06:35:57.106Z,8.45
2023-04-27T06:38:23.496Z,8.67
2023-04-27T06:40:53.093Z,8.90
2023-04-27T06:43:19.550Z,9.16
2023-04-27T06:45:46.050Z,9.47
2023-04-27T06:48:12.454Z,9.75
2023-04-27T06:50:38.793Z,9.82
2023-04-27T06:53:05.128Z,9.76
2023-04-27T06:55:31.435Z,9.81
2023-04-27T06:57:57.794Z,9.84
2023-04-27T07:00:24.309Z,9.90
2023-04-27T07:02:51.625Z,9.96
2023-04-27T07:05:18.501Z,10.21
2023-04-27T07:07:44.893Z,10.33
2023-04-27T07:10:11.430Z,10.47
2023-04-27T07:12:38.479Z,10.57
2023-04-27T07:15:06.452Z,10.78
2023-04-27T07:17:33.179Z,11.01
2023-04-27T07:20:00.880Z,11.29
2023-04-27T07:22:27.170Z,11.50
2023-04-27T07:24:53.506Z,11.68
2023-04-27T07:27:20.332Z,11.94
2023-04-27T07:29:47.143Z,12.20
2023-04-27T07:32:13.771Z,12.36
2023-04-27T07:34:51.787Z,12.64
2023-04-27T07:37:18.761Z,13.08
2023-04-27T07:39:45.127Z,13.29
2023-04-27T07:42:12.325Z,13.54
2023-04-27T07:44:38.643Z,13.56
2023-04-27T07:47:05.178Z,13.49
2023-04-27T07:49:31.536Z,13.58
2023-04-27T07:51:57.941Z,13.67
2023-04-27T07:54:24.376Z,13.82
2023-04-27T07:56:50.724Z,13.85
2023-04-27T07:59:17.175Z,14.10
2023-04-27T08:01:43.580Z,14.19
2023-04-27T08:04:10.089Z,14.13
2023-04-27T08:06:37.083Z,13.97
2023-04-27T08:09:04.317Z,13.95
2023-04-27T08:11:31.498Z,14.03
2023-04-27T08:13:57.853Z,14.24
2023-04-27T08:16:24.414Z,14.45
2023-04-27T08:18:50.863Z,14.60
2023-04-27T08:21:17.163Z,14.86
2023-04-27T08:23:43.788Z,15.99
2023-04-27T08:26:14.501Z,17.85
2023-04-27T08:28:42.466Z,19.46
2023-04-27T08:31:09.049Z,20.21
2023-04-27T08:33:35.395Z,20.11
2023-04-27T08:36:01.755Z,20.29
2023-04-27T08:38:28.020Z,20.50
2023-04-27T08:40:54.318Z,20.84
2023-04-27T08:43:20.771Z,20.97
2023-04-27T08:45:49.115Z,21.25
2023-04-27T08:48:15.731Z,21.17
2023-04-27T08:50:44.801Z,21.62
2023-04-27T08:53:18.370Z,22.23
2023-04-27T08:55:44.750Z,22.43
2023-04-27T08:58:11.225Z,22.29
2023-04-27T09:00:43.084Z,22.33
2023-04-27T09:03:23.302Z,22.53
2023-04-27T09:06:03.802Z,22.75
2023-04-27T09:09:01.546Z,22.44
2023-04-27T09:11:31.250Z,22.24
2023-04-27T09:13:59.770Z,22.49
2023-04-27T09:16:29.050Z,22.65
2023-04-27T09:18:57.225Z,22.21
2023-04-27T09:21:31.210Z,21.80
2023-04-27T09:23:57.509Z,21.46
2023-04-27T09:26:27.720Z,21.28
2023-04-27T09:28:57.854Z,21.14
2023-04-27T09:31:35.479Z,21.12
2023-04-27T09:34:03.309Z,21.01
2023-04-27T09:36:33.398Z,21.06
2023-04-27T09:39:05.123Z,21.23
2023-04-27T09:41:36.448Z,21.20
2023-04-27T09:44:04.082Z,21.18
2023-04-27T09:46:33.716Z,21.05
2023-04-27T09:49:06.040Z,21.12
2023-04-27T09:51:33.739Z,21.10
2023-04-27T09:54:04.082Z,22.18
2023-04-27T09:56:52.221Z,22.75
2023-04-27T09:59:37.282Z,22.65
2023-04-27T10:02:20.883Z,22.68
2023-04-27T10:05:08.958Z,22.50
2023-04-27T10:07:36.125Z,22.29
2023-04-27T10:10:05.012Z,22.13
2023-04-27T10:12:38.849Z,22.07
2023-04-27T10:15:13.836Z,21.96
2023-04-27T10:17:48.558Z,22.05
2023-04-27T10:20:15.429Z,22.12
2023-04-27T10:22:50.034Z,22.53
2023-04-27T10:25:16.520Z,22.47
2023-04-27T10:27:44.431Z,22.15
2023-04-27T10:30:12.414Z,22.14
2023-04-27T10:32:51.364Z,21.98
2023-04-27T10:35:17.858Z,21.67
2023-04-27T10:37:44.374Z,21.56
2023-04-27T10:40:14.622Z,21.40
2023-04-27T10:42:42.153Z,21.04
2023-04-27T10:45:09.168Z,21.34
2023-04-27T10:47:41.078Z,21.56
2023-04-27T10:50:13.502Z,21.50
2023-04-27T10:52:44.420Z,21.14
2023-04-27T10:55:22.731Z,20.49
2023-04-27T10:57:53.997Z,20.22
2023-04-27T11:00:32.073Z,20.53
2023-04-27T11:03:19.272Z,20.59
2023-04-27T11:05:47.928Z,20.70
2023-04-27T11:08:19.104Z,20.65
2023-04-27T11:10:49.783Z,20.47
2023-04-27T11:13:18.283Z,20.34
2023-04-27T11:15:47.854Z,20.25
2023-04-27T11:18:15.826Z,20.27
2023-04-27T11:20:44.366Z,20.11
2023-04-27T11:23:11.075Z,20.10
2023-04-27T11:25:38.452Z,20.69
2023-04-27T11:28:05.022Z,20.96
2023-04-27T11:30:31.462Z,21.15
2023-04-27T11:32:57.845Z,20.87
2023-04-27T11:35:36.433Z,20.73
2023-04-27T11:38:03.134Z,20.51
2023-04-27T11:40:29.492Z,20.47
2023-04-27T11:42:59.544Z,20.45
2023-04-27T11:45:29.924Z,20.32
2023-04-27T11:47:59.051Z,20.26
2023-04-27T11:50:26.632Z,20.49
2023-04-27T11:52:53.305Z,20.57
2023-04-27T11:55:22.717Z,20.47
2023-04-27T11:57:49.125Z,20.34
2023-04-27T12:00:16.463Z,20.10
2023-04-27T12:02:44.257Z,20.00
2023-04-27T12:05:12.533Z,20.00
2023-04-27T12:07:39.455Z,19.93
2023-04-27T12:10:06.706Z,19.94
2023-04-27T12:12:33.523Z,19.82
2023-04-27T12:14:59.863Z,19.54
2023-04-27T12:17:26.789Z,19.47
2023-04-27T12:19:53.139Z,19.70
2023-04-27T12:22:20.043Z,19.96
2023-04-27T12:24:46.457Z,20.25
2023-04-27T12:27:12.747Z,20.45
2023-04-27T12:29:39.125Z,20.67
2023-04-27T12:32:05.926Z,20.85
2023-04-27T12:34:32.699Z,21.34
2023-04-27T12:36:59.026Z,21.31
2023-04-27T12:39:25.403Z,21.31
2023-04-27T12:41:53.508Z,21.05
2023-04-27T12:44:20.461Z,20.91
2023-04-27T12:46:50.550Z,20.85
2023-04-27T12:49:17.721Z,20.89
2023-04-27T12:51:45.468Z,21.06
2023-04-27T12:54:12.901Z,21.34
2023-04-27T12:56:39.560Z,21.63
2023-04-27T12:59:06.188Z,21.50
2023-04-27T13:01:32.636Z,21.31
2023-04-27T13:04:04.056Z,21.15
2023-04-27T13:06:31.837Z,21.27
2023-04-27T13:09:00.934Z,21.59
2023-04-27T13:11:27.354Z,21.80
2023-04-27T13:13:54.913Z,22.13
2023-04-27T13:16:22.664Z,22.21
2023-04-27T13:18:51.894Z,22.33
2023-04-27T13:21:18.273Z,22.08
2023-04-27T13:23:44.769Z,21.68
2023-04-27T13:26:11.448Z,21.73
2023-04-27T13:28:37.795Z,21.52
2023-04-27T13:31:04.400Z,21.29
2023-04-27T13:33:33.423Z,21.51
2023-04-27T13:36:02.155Z,21.61
2023-04-27T13:38:28.881Z,21.37
2023-04-27T13:40:55.233Z,21.28
2023-04-27T13:43:21.573Z,21.22
2023-04-27T13:45:49.498Z,21.04
2023-04-27T13:48:17.414Z,21.02
2023-04-27T13:50:43.761Z,21.22
2023-04-27T13:53:10.267Z,21.28
2023-04-27T13:55:37.165Z,21.25
2023-04-27T13:58:03.574Z,21.50
2023-04-27T14:00:33.384Z,21.76
2023-04-27T14:03:01.309Z,21.94
2023-04-27T14:05:27.759Z,22.08
2023-04-27T14:07:54.045Z,22.19
2023-04-27T14:10:20.392Z,22.00
2023-04-27T14:12:46.931Z,22.12
2023-04-27T14:15:13.225Z,22.33
2023-04-27T14:17:39.618Z,22.60
2023-04-27T14:20:06.904Z,22.52
2023-04-27T14:22:34.926Z,22.33
2023-04-27T14:25:01.323Z,22.26
2023-04-27T14:27:28.690Z,21.88
2023-04-27T14:29:54.969Z,22.00
2023-04-27T14:32:21.509Z,22.34
2023-04-27T14:34:47.945Z,22.31
2023-04-27T14:37:14.269Z,22.37
2023-04-27T14:39:41.851Z,22.33
2023-04-27T14:42:09.726Z,21.93
2023-04-27T14:44:36.662Z,21.57
2023-04-27T14:47:03.043Z,21.60
2023-04-27T14:49:29.369Z,21.74
2023-04-27T14:51:55.664Z,21.68
2023-04-27T14:54:22.032Z,21.91
2023-04-27T14:56:48.434Z,22.07
2023-04-27T14:59:15.027Z,21.96
2023-04-27T15:01:41.545Z,21.79
2023-04-27T15:04:11.436Z,21.83
2023-04-27T15:06:37.794Z,21.89
2023-04-27T15:09:04.638Z,21.78
2023-04-27T15:11:31.016Z,21.52
2023-04-27T15:13:57.332Z,21.27
2023-04-27T15:16:23.681Z,20.87
2023-04-27T15:18:50.051Z,20.84
2023-04-27T15:21:16.292Z,20.97
2023-04-27T15:23:42.576Z,20.98
2023-04-27T15:26:08.887Z,20.82
2023-04-27T15:28:36.213Z,20.64
2023-04-27T15:31:03.237Z,20.39
2023-04-27T15:33:29.598Z,20.22
2023-04-27T15:35:56.230Z,20.14
2023-04-27T15:38:22.849Z,20.02
2023-04-27T15:40:49.170Z,19.97
2023-04-27T15:43:15.601Z,19.79
2023-04-27T15:45:42.241Z,19.70
2023-04-27T15:48:08.603Z,19.85
2023-04-27T15:50:35.034Z,19.87
2023-04-27T15:53:01.511Z,20.04
2023-04-27T15:55:27.855Z,20.22
2023-04-27T15:57:54.101Z,20.17
2023-04-27T16:00:22.207Z,20.06
2023-04-27T16:02:48.743Z,19.86
2023-04-27T16:05:15.190Z,19.79
2023-04-27T16:07:45.526Z,19.89
2023-04-27T16:10:12.655Z,20.11
2023-04-27T16:12:39.736Z,20.48
2023-04-27T16:15:10.090Z,20.70
2023-04-27T16:17:37.767Z,20.84
2023-04-27T16:20:07.348Z,20.82
2023-04-27T16:22:37.990Z,20.49
2023-04-27T16:25:10.066Z,20.50
2023-04-27T16:27:40.063Z,20.41
2023-04-27T16:30:07.444Z,20.11
2023-04-27T16:32:35.570Z,19.93
2023-04-27T16:35:02.387Z,20.02
2023-04-27T16:37:28.758Z,19.92
2023-04-27T16:39:58.987Z,19.93
2023-04-27T16:42:25.630Z,19.76
2023-04-27T16:44:52.061Z,19.55
2023-04-27T16:47:18.398Z,19.57
2023-04-27T16:49:44.727Z,19.54
2023-04-27T16:52:11.851Z,19.62
2023-04-27T16:54:38.195Z,19.78
2023-04-27T16:57:04.600Z,19.73
2023-04-27T16:59:31.122Z,19.68
2023-04-27T17:02:01.717Z,19.58
2023-04-27T17:04:39.820Z,19.44
2023-04-27T17:07:07.174Z,19.07
2023-04-27T17:09:36.486Z,18.81
2023-04-27T17:12:03.697Z,18.53
2023-04-27T17:14:30.247Z,18.43
2023-04-27T17:16:56.534Z,18.39
2023-04-27T17:19:22.839Z,18.42
2023-04-27T17:21:49.124Z,18.27
2023-04-27T17:24:15.467Z,18.11
2023-04-27T17:26:41.715Z,18.03
2023-04-27T17:29:08.052Z,17.91
2023-04-27T17:31:34.341Z,17.85
2023-04-27T17:34:02.086Z,17.75
2023-04-27T17:36:28.475Z,17.66
2023-04-27T17:38:54.819Z,17.65
2023-04-27T17:41:21.151Z,17.63
2023-04-27T17:43:49.774Z,17.58
2023-04-27T17:46:16.116Z,17.51
2023-04-27T17:48:42.924Z,17.45
2023-04-27T17:51:09.293Z,17.34
2023-04-27T17:53:35.704Z,17.27
2023-04-27T17:56:02.324Z,17.16
2023-04-27T17:58:28.625Z,17.06
2023-04-27T18:00:54.971Z,17.02
2023-04-27T18:03:22.320Z,16.97
2023-04-27T18:05:48.775Z,16.90
2023-04-27T18:08:15.111Z,16.87
2023-04-27T18:10:41.560Z,16.78
2023-04-27T18:13:07.861Z,16.66
2023-04-27T18:15:34.291Z,16.61
2023-04-27T18:18:00.647Z,16.57
2023-04-27T18:20:28.014Z,16.49
2023-04-27T18:22:54.397Z,16.43
2023-04-27T18:25:20.733Z,16.34
2023-04-27T18:27:49.659Z,16.29
2023-04-27T18:30:16.145Z,16.23
2023-04-27T18:32:42.393Z,16.18
2023-04-27T18:35:09.187Z,16.10
2023-04-27T18:37:35.490Z,16.06
2023-04-27T18:40:01.814Z,15.97
2023-04-27T18:42:28.198Z,15.91
2023-04-27T18:45:00.490Z,15.90
2023-04-27T18:47:27.226Z,15.89
2023-04-27T18:49:53.545Z,15.82
2023-04-27T18:52:19.979Z,15.82
2023-04-27T18:54:46.249Z,15.80
2023-04-27T18:57:12.546Z,15.70
2023-04-27T18:59:39.410Z,15.67
2023-04-27T19:02:07.037Z,15.62
2023-04-27T19:04:33.791Z,15.53
2023-04-27T19:07:00.634Z,15.52
2023-04-27T19:09:27.068Z,15.41
2023-04-27T19:12:02.730Z,15.43
2023-04-27T19:14:31.096Z,15.38
2023-04-27T19:16:57.577Z,15.29
2023-04-27T19:19:24.716Z,15.32
2023-04-27T19:21:51.099Z,15.29
2023-04-27T19:24:17.509Z,15.24
2023-04-27T19:26:44.416Z,15.13
2023-04-27T19:29:10.840Z,15.18
2023-04-27T19:31:37.299Z,15.09
2023-04-27T19:34:04.698Z,15.02
2023-04-27T19:36:31.798Z,14.91
2023-04-27T19:38:58.079Z,14.86
2023-04-27T19:41:25.099Z,14.75
2023-04-27T19:43:51.398Z,14.69
2023-04-27T19:46:17.810Z,14.57
2023-04-27T19:48:44.158Z,14.54
2023-04-27T19:51:10.835Z,14.48
2023-04-27T19:53:40.222Z,14.45
2023-04-27T19:56:07.315Z,14.41
2023-04-27T19:58:35.629Z,14.43
2023-04-27T20:01:02.227Z,14.36
2023-04-27T20:03:28.627Z,14.38
2023-04-27T20:05:55.818Z,14.33
2023-04-27T20:08:22.512Z,14.24
2023-04-27T20:10:49.016Z,14.26
2023-04-27T20:13:15.375Z,14.24
2023-04-27T20:15:43.133Z,14.16
2023-04-27T20:18:09.484Z,14.15
2023-04-27T20:20:36.306Z,14.11
2023-04-27T20:23:02.619Z,14.04
2023-04-27T20:25:28.999Z,14.00
2023-04-27T20:27:55.314Z,13.95
2023-04-27T20:30:21.677Z,13.93
2023-04-27T20:32:48.609Z,13.85
2023-04-27T20:35:15.252Z,13.88
2023-04-27T20:37:43.433Z,13.87
2023-04-27T20:40:17.256Z,13.82
2023-04-27T20:42:45.519Z,13.81
2023-04-27T20:45:11.918Z,13.78
2023-04-27T20:47:38.586Z,13.73
2023-04-27T20:50:06.199Z,13.69
2023-04-27T20:52:34.408Z,13.64
2023-04-27T20:55:01.385Z,13.62
2023-04-27T20:57:27.656Z,13.59
2023-04-27T20:59:53.952Z,13.55
2023-04-27T21:02:20.618Z,13.56
2023-04-27T21:04:47.050Z,13.54
2023-04-27T21:07:13.498Z,13.54
2023-04-27T21:09:39.812Z,13.50
2023-04-27T21:12:06.596Z,13.43
2023-04-27T21:14:33.684Z,13.40
2023-04-27T21:17:00.292Z,13.38
2023-04-27T21:19:26.622Z,13.34
2023-04-27T21:21:52.999Z,13.30
2023-04-27T21:24:19.819Z,13.24
2023-04-27T21:26:46.233Z,13.20
2023-04-27T21:29:12.573Z,13.20
2023-04-27T21:31:38.949Z,13.23
2023-04-27T21:34:05.311Z,13.19
2023-04-27T21:36:32.095Z,13.19
2023-04-27T21:38:58.408Z,13.16
2023-04-27T21:41:24.697Z,13.10
2023-04-27T21:43:51.150Z,13.10
2023-04-27T21:46:17.560Z,13.07
2023-04-27T21:48:43.923Z,13.08
2023-04-27T21:51:10.331Z,13.07
2023-04-27T21:53:36.868Z,13.05
2023-04-27T21:56:03.185Z,12.99
2023-04-27T21:58:29.536Z,13.00
2023-04-27T22:00:55.937Z,13.00
2023-04-27T22:03:22.787Z,12.99
2023-04-27T22:05:50.143Z,12.98
2023-04-27T22:08:17.316Z,12.98
2023-04-27T22:10:44.535Z,12.95
2023-04-27T22:13:18.918Z,12.98
2023-04-27T22:15:46.003Z,13.00
2023-04-27T22:18:14.313Z,12.99
2023-04-27T22:20:40.870Z,13.00
2023-04-27T22:23:07.448Z,13.03
2023-04-27T22:25:33.739Z,13.07
2023-04-27T22:28:00.037Z,13.10
2023-04-27T22:30:26.331Z,13.11
2023-04-27T22:32:52.781Z,13.08
2023-04-27T22:35:26.430Z,13.15
2023-04-27T22:37:55.096Z,13.16
2023-04-27T22:40:21.608Z,13.18
2023-04-27T22:42:47.904Z,13.18
2023-04-27T22:45:14.277Z,13.19
2023-04-27T22:47:41.323Z,13.17
2023-04-27T22:50:08.423Z,13.17
2023-04-27T22:52:34.817Z,13.10
2023-04-27T22:55:04.358Z,13.17
2023-04-27T22:57:30.814Z,13.19
2023-04-27T22:59:57.126Z,13.17
2023-04-27T23:02:25.977Z,13.20
2023-04-27T23:04:52.397Z,13.21
2023-04-27T23:07:18.921Z,13.25
2023-04-27T23:09:45.721Z,13.26
2023-04-27T23:12:12.017Z,13.26
2023-04-27T23:14:39.849Z,13.29
2023-04-27T23:17:07.325Z,13.32
2023-04-27T23:19:34.280Z,13.26
2023-04-27T23:22:01.627Z,13.33
2023-04-27T23:24:29.086Z,13.33
2023-04-27T23:26:55.350Z,13.30
2023-04-27T23:29:21.627Z,13.33
2023-04-27T23:31:47.954Z,13.30
2023-04-27T23:34:15.139Z,13.30
2023-04-27T23:36:41.840Z,13.29
2023-04-27T23:39:08.328Z,13.27
2023-04-27T23:41:34.582Z,13.29
2023-04-27T23:44:00.847Z,13.29
2023-04-27T23:46:27.230Z,13.30
2023-04-27T23:48:53.516Z,13.32
2023-04-27T23:51:19.791Z,13.31
2023-04-27T23:53:46.065Z,13.32
2023-04-27T23:56:17.199Z,13.34
2023-04-27T23:58:43.556Z,13.30
